Time;durP1;ratioP1;P1;durP2;ratioP2;P2;SDS_P1;SDS_P2;PMS_P1;PMS_P2;Temp;Humidity;BMP_temperature;BMP_pressure;BME280_temperature;BME280_humidity;BME280_pressure;Samples;Min_cycle;Max_cycle;Signal;HPM_P1;HPM_P2
2023/03/03 00:02:16;;;;;;;46.63;32.63;;;;;;;;;;5006820;28;20389;-86
2023/03/03 00:04:41;;;;;;;46.97;32.70;;;;;;;;;;5011931;28;20727;-86
2023/03/03 00:07:08;;;;;;;45.85;32.20;;;;;;;;;;5011328;28;20417;-86
2023/03/03 00:09:33;;;;;;;48.08;32.67;;;;;;;;;;5008976;28;20387;-87
2023/03/03 00:12:02;;;;;;;48.55;33.15;;;;;;;;;;5023741;28;20417;-86
2023/03/03 00:14:29;;;;;;;49.28;33.30;;;;;;;;;;5021710;28;20868;-85
2023/03/03 00:16:56;;;;;;;45.43;31.93;;;;;;;;;;5027859;28;20488;-87
2023/03/03 00:19:23;;;;;;;46.47;33.25;;;;;;;;;;5022054;28;20845;-86
2023/03/03 00:21:53;;;;;;;47.95;32.25;;;;;;;;;;5004407;28;20394;-86
2023/03/03 00:24:19;;;;;;;49.95;33.10;;;;;;;;;;5006671;28;20386;-87
2023/03/03 00:26:47;;;;;;;47.97;33.43;;;;;;;;;;5002247;28;20385;-87
2023/03/03 00:29:27;;;;;;;47.10;33.92;;;;;;;;;;5011590;28;20409;-87
2023/03/03 00:31:54;;;;;;;46.25;32.78;;;;;;;;;;5011758;28;20470;-86
2023/03/03 00:34:24;;;;;;;51.03;34.53;;;;;;;;;;5011893;28;20744;-86
2023/03/03 00:36:53;;;;;;;47.00;33.35;;;;;;;;;;5011986;28;20384;-86
2023/03/03 00:39:26;;;;;;;50.10;33.83;;;;;;;;;;5012011;28;20400;-86
2023/03/03 00:41:52;;;;;;;50.25;33.60;;;;;;;;;;5010242;28;20425;-86
2023/03/03 00:44:38;;;;;;;45.88;32.97;;;;;;;;;;5011789;28;20471;-85
2023/03/03 00:47:24;;;;;;;47.63;33.67;;;;;;;;;;5011589;28;20472;-86
2023/03/03 00:49:50;;;;;;;46.83;32.58;;;;;;;;;;5011192;28;20881;-86
2023/03/03 00:52:18;;;;;;;46.38;33.28;;;;;;;;;;5011601;28;20436;-86
2023/03/03 00:54:44;;;;;;;47.22;33.35;;;;;;;;;;5011685;28;20735;-87
2023/03/03 00:57:13;;;;;;;47.30;33.07;;;;;;;;;;5011647;28;20399;-86
2023/03/03 00:59:39;;;;;;;46.58;32.95;;;;;;;;;;5011507;28;20437;-86
2023/03/03 01:02:06;;;;;;;48.92;33.70;;;;;;;;;;5011220;28;20393;-87
2023/03/03 01:04:32;;;;;;;47.47;33.35;;;;;;;;;;4993754;28;21099;-87
2023/03/03 01:06:58;;;;;;;52.10;35.05;;;;;;;;;;5011414;28;20487;-86
2023/03/03 01:09:24;;;;;;;50.03;33.88;;;;;;;;;;5011275;28;20412;-86
2023/03/03 01:11:51;;;;;;;48.70;32.88;;;;;;;;;;5002051;28;20421;-87
2023/03/03 01:14:17;;;;;;;46.40;32.72;;;;;;;;;;5013545;28;20396;-86
2023/03/03 01:16:43;;;;;;;46.88;33.25;;;;;;;;;;4997635;28;20396;-86
2023/03/03 01:19:09;;;;;;;48.47;33.78;;;;;;;;;;5015236;28;20882;-85
2023/03/03 01:21:35;;;;;;;48.08;33.17;;;;;;;;;;5015145;28;20475;-86
2023/03/03 01:24:01;;;;;;;49.95;33.97;;;;;;;;;;5015259;28;20394;-87
2023/03/03 01:26:27;;;;;;;46.63;33.53;;;;;;;;;;5015184;28;20861;-86
2023/03/03 01:28:53;;;;;;;48.78;34.45;;;;;;;;;;5015151;28;20388;-86
2023/03/03 01:31:19;;;;;;;47.97;34.72;;;;;;;;;;5015086;28;20500;-86
2023/03/03 01:33:45;;;;;;;49.35;34.65;;;;;;;;;;5015160;28;20866;-86
2023/03/03 01:36:11;;;;;;;50.10;34.72;;;;;;;;;;5014536;28;20381;-85
2023/03/03 01:38:38;;;;;;;49.07;33.50;;;;;;;;;;5014694;28;20866;-86
2023/03/03 01:41:04;;;;;;;49.40;33.33;;;;;;;;;;5014569;28;20905;-86
2023/03/03 01:43:31;;;;;;;50.57;34.20;;;;;;;;;;5014645;28;20480;-87
2023/03/03 01:45:57;;;;;;;48.80;33.60;;;;;;;;;;5014525;28;20392;-87
2023/03/03 01:48:30;;;;;;;48.83;33.00;;;;;;;;;;5014732;28;20397;-86
2023/03/03 01:50:56;;;;;;;49.92;34.08;;;;;;;;;;5014469;28;20396;-87
2023/03/03 01:53:27;;;;;;;47.37;33.30;;;;;;;;;;5014704;28;20401;-86
2023/03/03 01:55:54;;;;;;;50.03;34.58;;;;;;;;;;5014743;28;20389;-86
2023/03/03 01:58:27;;;;;;;48.70;34.03;;;;;;;;;;4992900;28;20402;-86
2023/03/03 02:00:57;;;;;;;49.60;35.00;;;;;;;;;;5005935;28;20389;-87
2023/03/03 02:03:24;;;;;;;47.37;34.07;;;;;;;;;;4996637;28;20397;-86
2023/03/03 02:05:52;;;;;;;51.05;34.42;;;;;;;;;;4996665;28;20475;-87
2023/03/03 02:08:21;;;;;;;49.45;33.72;;;;;;;;;;5014304;28;20389;-87
2023/03/03 02:10:47;;;;;;;49.53;33.45;;;;;;;;;;5014040;28;20459;-87
2023/03/03 02:13:14;;;;;;;48.85;34.78;;;;;;;;;;5013972;28;20448;-86
2023/03/03 02:15:40;;;;;;;52.92;35.38;;;;;;;;;;5013839;28;20379;-87
2023/03/03 02:18:08;;;;;;;48.70;33.20;;;;;;;;;;5014195;28;20464;-86
2023/03/03 02:20:49;;;;;;;51.35;35.40;;;;;;;;;;5014150;28;20400;-87
2023/03/03 02:23:48;;;;;;;49.92;34.47;;;;;;;;;;4984325;28;20403;-86
2023/03/03 02:26:23;;;;;;;53.77;35.97;;;;;;;;;;4959481;28;20404;-86
2023/03/03 02:28:51;;;;;;;53.35;36.13;;;;;;;;;;5013826;28;20381;-86
2023/03/03 02:31:18;;;;;;;48.17;33.58;;;;;;;;;;5010400;28;20424;-86
2023/03/03 02:33:45;;;;;;;53.53;35.90;;;;;;;;;;4996311;28;20407;-86
2023/03/03 02:36:16;;;;;;;51.72;35.33;;;;;;;;;;5013786;28;20393;-86
2023/03/03 02:38:48;;;;;;;50.17;35.30;;;;;;;;;;5014046;28;20389;-86
2023/03/03 02:41:26;;;;;;;50.83;35.78;;;;;;;;;;4999971;28;20859;-86
2023/03/03 02:43:58;;;;;;;53.10;35.05;;;;;;;;;;5013419;28;20397;-87
2023/03/03 02:46:28;;;;;;;52.60;35.80;;;;;;;;;;5013052;28;20381;-86
2023/03/03 02:48:54;;;;;;;50.03;34.27;;;;;;;;;;5013415;28;20475;-87
2023/03/03 02:51:20;;;;;;;49.30;34.13;;;;;;;;;;5013150;28;20515;-87
2023/03/03 02:53:46;;;;;;;49.95;34.53;;;;;;;;;;5013278;28;20397;-86
2023/03/03 02:56:12;;;;;;;51.33;34.72;;;;;;;;;;5013328;28;20389;-86
2023/03/03 02:58:38;;;;;;;53.33;35.38;;;;;;;;;;5013488;28;20424;-87
2023/03/03 03:01:07;;;;;;;50.57;35.07;;;;;;;;;;4995540;28;20428;-85
2023/03/03 03:03:33;;;;;;;48.58;33.85;;;;;;;;;;5012939;28;20921;-86
2023/03/03 03:05:59;;;;;;;48.70;34.58;;;;;;;;;;5013469;28;20393;-85
2023/03/03 03:08:25;;;;;;;54.65;36.03;;;;;;;;;;5011331;28;20389;-87
2023/03/03 03:10:51;;;;;;;54.75;36.20;;;;;;;;;;5006384;28;20409;-86
2023/03/03 03:13:17;;;;;;;48.85;34.47;;;;;;;;;;5015029;28;20419;-86
2023/03/03 03:15:45;;;;;;;52.08;35.00;;;;;;;;;;5016744;28;20393;-87
2023/03/03 03:18:11;;;;;;;48.63;34.42;;;;;;;;;;4999879;28;20392;-86
2023/03/03 03:20:38;;;;;;;54.00;35.30;;;;;;;;;;5001105;28;20389;-86
2023/03/03 03:23:05;;;;;;;53.53;36.13;;;;;;;;;;5009966;28;20388;-86
2023/03/03 03:25:31;;;;;;;62.42;39.78;;;;;;;;;;5010980;28;20412;-85
2023/03/03 03:27:57;;;;;;;54.25;36.65;;;;;;;;;;5011107;28;20412;-85
2023/03/03 03:30:23;;;;;;;54.47;36.50;;;;;;;;;;5011097;28;20471;-85
2023/03/03 03:32:49;;;;;;;52.15;36.42;;;;;;;;;;5010787;28;20932;-85
2023/03/03 03:35:16;;;;;;;50.70;35.22;;;;;;;;;;5021067;28;20393;-86
2023/03/03 03:37:42;;;;;;;49.00;34.42;;;;;;;;;;5020910;28;20389;-86
2023/03/03 03:40:08;;;;;;;50.22;35.08;;;;;;;;;;5022639;28;20463;-85
2023/03/03 03:42:34;;;;;;;51.27;35.23;;;;;;;;;;5022715;28;20436;-85
2023/03/03 03:45:00;;;;;;;50.08;34.55;;;;;;;;;;5018012;28;20404;-85
2023/03/03 03:47:26;;;;;;;49.38;34.08;;;;;;;;;;5014566;28;20400;-88
2023/03/03 03:49:52;;;;;;;51.33;34.60;;;;;;;;;;5012542;28;20388;-86
2023/03/03 03:52:18;;;;;;;50.50;35.30;;;;;;;;;;4994975;28;20436;-86
2023/03/03 03:54:44;;;;;;;50.57;35.30;;;;;;;;;;5012334;28;20403;-86
2023/03/03 03:57:10;;;;;;;50.70;34.95;;;;;;;;;;5012451;28;20393;-85
2023/03/03 03:59:37;;;;;;;53.85;36.17;;;;;;;;;;5012030;28;20440;-85
2023/03/03 04:02:03;;;;;;;51.07;35.80;;;;;;;;;;5012439;28;20377;-85
2023/03/03 04:04:29;;;;;;;54.35;34.88;;;;;;;;;;5012506;28;20391;-86
2023/03/03 04:06:55;;;;;;;50.92;34.85;;;;;;;;;;4994301;28;21150;-86
2023/03/03 04:09:21;;;;;;;53.03;34.43;;;;;;;;;;5011994;28;20401;-86
2023/03/03 04:11:47;;;;;;;49.97;34.83;;;;;;;;;;5011757;28;20424;-86
2023/03/03 04:14:13;;;;;;;50.55;34.78;;;;;;;;;;5011948;28;20483;-85
2023/03/03 04:16:39;;;;;;;51.10;34.63;;;;;;;;;;5008675;28;20413;-86
2023/03/03 04:19:05;;;;;;;53.13;35.72;;;;;;;;;;5011963;28;20894;-85
2023/03/03 04:21:31;;;;;;;52.55;35.75;;;;;;;;;;5011940;28;20484;-86
2023/03/03 04:23:57;;;;;;;50.30;35.47;;;;;;;;;;5011604;28;20472;-85
2023/03/03 04:26:23;;;;;;;51.88;35.85;;;;;;;;;;5012006;28;20420;-85
2023/03/03 04:28:49;;;;;;;49.78;35.42;;;;;;;;;;5012081;28;20917;-85
2023/03/03 04:31:15;;;;;;;52.20;35.90;;;;;;;;;;5011827;28;20492;-85
2023/03/03 04:33:41;;;;;;;50.67;34.85;;;;;;;;;;5012049;28;20391;-85
2023/03/03 04:36:09;;;;;;;52.28;35.75;;;;;;;;;;5011250;28;20567;-86
2023/03/03 04:38:35;;;;;;;49.08;34.97;;;;;;;;;;5008350;28;20376;-86
2023/03/03 04:41:01;;;;;;;52.65;36.20;;;;;;;;;;4993775;28;20415;-85
2023/03/03 04:43:27;;;;;;;50.38;35.00;;;;;;;;;;5011530;28;20920;-85
2023/03/03 04:45:53;;;;;;;52.53;35.40;;;;;;;;;;5011218;28;20388;-87
2023/03/03 04:48:19;;;;;;;53.70;36.08;;;;;;;;;;5012134;28;20388;-86
2023/03/03 04:50:45;;;;;;;53.37;36.30;;;;;;;;;;5010537;28;20427;-86
2023/03/03 04:53:11;;;;;;;53.05;36.92;;;;;;;;;;5015185;28;20431;-86
2023/03/03 04:55:37;;;;;;;54.92;36.65;;;;;;;;;;5014868;28;20897;-87
2023/03/03 04:58:04;;;;;;;56.45;38.05;;;;;;;;;;5015537;28;20477;-86
2023/03/03 05:00:30;;;;;;;52.65;35.85;;;;;;;;;;5015698;28;20789;-86
2023/03/03 05:02:56;;;;;;;54.90;37.53;;;;;;;;;;5015039;28;20412;-87
2023/03/03 05:05:22;;;;;;;51.70;37.05;;;;;;;;;;5015036;28;20389;-85
2023/03/03 05:07:48;;;;;;;54.90;37.20;;;;;;;;;;5015274;28;20766;-86
2023/03/03 05:10:14;;;;;;;52.08;36.85;;;;;;;;;;4995840;28;20397;-86
2023/03/03 05:12:40;;;;;;;54.55;37.45;;;;;;;;;;5011099;28;20420;-86
2023/03/03 05:15:07;;;;;;;56.92;38.70;;;;;;;;;;5014121;28;20388;-85
2023/03/03 05:17:33;;;;;;;53.60;36.83;;;;;;;;;;5003423;28;20393;-86
2023/03/03 05:19:59;;;;;;;54.10;37.47;;;;;;;;;;5015018;28;20385;-87
2023/03/03 05:22:25;;;;;;;55.38;36.80;;;;;;;;;;5001401;28;20400;-85
2023/03/03 05:24:52;;;;;;;57.47;37.28;;;;;;;;;;5015102;28;20421;-85
2023/03/03 05:27:18;;;;;;;54.00;36.72;;;;;;;;;;5010100;28;20391;-85
2023/03/03 05:29:45;;;;;;;56.13;37.10;;;;;;;;;;4996494;28;20410;-85
2023/03/03 05:32:11;;;;;;;57.03;38.20;;;;;;;;;;5010059;28;20416;-86
2023/03/03 05:34:37;;;;;;;54.35;37.38;;;;;;;;;;5013848;28;20404;-85
2023/03/03 05:37:05;;;;;;;57.25;38.17;;;;;;;;;;4995627;28;20461;-84
2023/03/03 05:39:31;;;;;;;59.15;39.05;;;;;;;;;;5013517;28;20459;-86
2023/03/03 05:41:59;;;;;;;52.67;36.22;;;;;;;;;;4996037;28;20935;-84
2023/03/03 05:44:25;;;;;;;54.72;37.38;;;;;;;;;;5013323;28;20468;-86
2023/03/03 05:46:51;;;;;;;55.63;37.80;;;;;;;;;;5013994;28;20472;-85
2023/03/03 05:49:17;;;;;;;57.08;37.65;;;;;;;;;;5013715;28;20472;-85
2023/03/03 05:51:42;;;;;;;53.92;38.13;;;;;;;;;;5013367;28;20890;-86
2023/03/03 05:54:08;;;;;;;58.03;38.50;;;;;;;;;;5013472;28;20396;-86
2023/03/03 05:56:34;;;;;;;56.42;38.55;;;;;;;;;;5003392;28;20846;-86
2023/03/03 05:59:00;;;;;;;57.63;38.83;;;;;;;;;;5012847;28;20384;-86
2023/03/03 06:01:28;;;;;;;54.15;37.22;;;;;;;;;;5011484;28;20869;-86
2023/03/03 06:03:56;;;;;;;57.23;38.43;;;;;;;;;;5011880;28;20793;-86
2023/03/03 06:06:22;;;;;;;56.75;38.13;;;;;;;;;;5008689;28;20378;-86
2023/03/03 06:08:48;;;;;;;58.88;38.90;;;;;;;;;;5017503;28;20460;-87
2023/03/03 06:11:17;;;;;;;57.22;38.28;;;;;;;;;;5019980;28;20381;-86
2023/03/03 06:13:43;;;;;;;56.60;38.80;;;;;;;;;;5012930;28;20899;-86
2023/03/03 06:16:09;;;;;;;56.22;37.75;;;;;;;;;;5004320;28;20409;-85
2023/03/03 06:18:35;;;;;;;53.33;36.80;;;;;;;;;;4995256;28;20458;-84
2023/03/03 06:21:01;;;;;;;55.50;38.05;;;;;;;;;;5010934;28;20396;-85
2023/03/03 06:23:27;;;;;;;54.50;38.00;;;;;;;;;;5013184;28;20873;-84
2023/03/03 06:25:53;;;;;;;55.65;38.10;;;;;;;;;;5013008;28;20873;-85
2023/03/03 06:28:19;;;;;;;54.92;37.25;;;;;;;;;;5012083;28;20504;-85
2023/03/03 06:30:45;;;;;;;57.13;38.83;;;;;;;;;;5012444;28;20475;-85
2023/03/03 06:33:11;;;;;;;55.60;37.55;;;;;;;;;;5012939;28;20424;-85
2023/03/03 06:35:37;;;;;;;56.63;37.95;;;;;;;;;;5012502;28;20423;-83
2023/03/03 06:38:03;;;;;;;56.85;38.28;;;;;;;;;;5012592;28;20401;-84
2023/03/03 06:40:29;;;;;;;54.63;37.50;;;;;;;;;;5012537;28;20981;-84
2023/03/03 06:42:55;;;;;;;62.27;39.33;;;;;;;;;;5012283;28;20480;-84
2023/03/03 06:45:21;;;;;;;58.10;39.30;;;;;;;;;;4994576;28;20462;-84
2023/03/03 06:47:47;;;;;;;59.53;39.15;;;;;;;;;;5011478;28;20399;-85
2023/03/03 06:50:13;;;;;;;57.85;39.00;;;;;;;;;;5011451;28;20444;-84
2023/03/03 06:52:39;;;;;;;60.95;39.65;;;;;;;;;;5011370;28;20421;-85
2023/03/03 06:55:18;;;;;;;56.30;38.60;;;;;;;;;;5011958;28;20377;-85
2023/03/03 06:57:44;;;;;;;61.30;39.17;;;;;;;;;;5011445;28;20397;-85
2023/03/03 07:00:10;;;;;;;58.08;38.30;;;;;;;;;;5000165;28;20408;-84
2023/03/03 07:02:36;;;;;;;60.70;39.50;;;;;;;;;;5018244;28;20929;-85
2023/03/03 07:05:02;;;;;;;58.28;37.92;;;;;;;;;;5019728;28;20400;-84
2023/03/03 07:07:28;;;;;;;58.05;37.58;;;;;;;;;;5025487;28;20385;-84
2023/03/03 07:09:55;;;;;;;58.92;38.92;;;;;;;;;;5018187;28;20380;-84
2023/03/03 07:12:22;;;;;;;58.80;38.50;;;;;;;;;;5014154;28;20440;-84
2023/03/03 07:14:54;;;;;;;59.67;39.20;;;;;;;;;;5013932;28;20438;-84
2023/03/03 07:17:21;;;;;;;60.20;39.40;;;;;;;;;;5013224;28;20486;-83
2023/03/03 07:19:48;;;;;;;55.25;37.67;;;;;;;;;;5012935;28;20407;-84
2023/03/03 07:22:25;;;;;;;58.33;38.03;;;;;;;;;;5013049;28;20471;-84
2023/03/03 07:24:53;;;;;;;56.83;38.93;;;;;;;;;;5012398;28;20511;-84
2023/03/03 07:27:19;;;;;;;56.55;38.30;;;;;;;;;;5012644;28;20539;-85
2023/03/03 07:29:48;;;;;;;58.90;37.72;;;;;;;;;;5012584;28;20906;-83
2023/03/03 07:32:26;;;;;;;62.17;40.58;;;;;;;;;;5012713;28;20845;-83
2023/03/03 07:34:53;;;;;;;61.85;40.53;;;;;;;;;;5012777;28;20911;-83
2023/03/03 07:37:29;;;;;;;60.25;39.45;;;;;;;;;;5012241;28;20396;-84
2023/03/03 07:39:55;;;;;;;59.38;39.85;;;;;;;;;;5012069;28;20396;-83
2023/03/03 07:42:21;;;;;;;60.35;40.58;;;;;;;;;;5012706;28;20850;-83
2023/03/03 07:44:50;;;;;;;62.65;40.30;;;;;;;;;;5012837;28;20405;-83
2023/03/03 07:47:24;;;;;;;62.75;41.15;;;;;;;;;;4994884;28;20762;-85
2023/03/03 07:49:50;;;;;;;59.95;40.38;;;;;;;;;;5012143;28;20385;-87
2023/03/03 07:52:39;;;;;;;60.70;40.58;;;;;;;;;;5012065;28;20419;-83
2023/03/03 07:55:24;;;;;;;60.22;40.50;;;;;;;;;;5012218;28;20883;-84
2023/03/03 07:57:51;;;;;;;62.90;41.28;;;;;;;;;;5011873;28;20381;-83
2023/03/03 08:00:17;;;;;;;59.50;39.88;;;;;;;;;;5012280;28;20421;-84
2023/03/03 08:03:01;;;;;;;60.42;41.38;;;;;;;;;;5011267;28;20478;-84
2023/03/03 08:05:30;;;;;;;59.13;39.53;;;;;;;;;;5011572;28;20377;-83
2023/03/03 08:08:11;;;;;;;60.35;41.10;;;;;;;;;;5004534;28;20465;-86
2023/03/03 08:10:49;;;;;;;61.80;40.60;;;;;;;;;;5009957;28;20392;-89
2023/03/03 08:13:19;;;;;;;61.88;41.15;;;;;;;;;;4989845;28;20448;-87
2023/03/03 08:15:48;;;;;;;62.00;41.20;;;;;;;;;;5000307;28;20388;-87
2023/03/03 08:18:25;;;;;;;63.90;41.53;;;;;;;;;;4993301;28;20393;-88
2023/03/03 08:20:52;;;;;;;72.20;43.47;;;;;;;;;;5011641;28;20477;-88
2023/03/03 08:23:18;;;;;;;65.88;42.78;;;;;;;;;;5011852;28;20416;-88
2023/03/03 08:25:45;;;;;;;64.28;40.92;;;;;;;;;;5011648;28;20488;-88
2023/03/03 08:28:11;;;;;;;65.53;41.83;;;;;;;;;;5005241;28;20482;-89
2023/03/03 08:30:37;;;;;;;63.50;41.67;;;;;;;;;;5011327;28;20384;-87
2023/03/03 08:33:03;;;;;;;62.25;41.80;;;;;;;;;;5011567;28;20417;-88
2023/03/03 08:35:29;;;;;;;64.63;43.03;;;;;;;;;;4995201;28;20444;-87
2023/03/03 08:37:55;;;;;;;68.60;44.33;;;;;;;;;;5011503;28;20418;-87
2023/03/03 08:40:21;;;;;;;65.28;42.65;;;;;;;;;;5011677;28;20400;-88
2023/03/03 08:42:47;;;;;;;67.97;42.95;;;;;;;;;;5011634;28;20393;-88
2023/03/03 08:45:13;;;;;;;63.25;41.17;;;;;;;;;;5011822;28;20447;-87
2023/03/03 08:47:40;;;;;;;63.55;42.13;;;;;;;;;;5008121;28;20459;-88
2023/03/03 08:50:06;;;;;;;62.07;41.77;;;;;;;;;;5011886;28;20474;-88
2023/03/03 08:52:33;;;;;;;67.18;43.75;;;;;;;;;;5011698;28;20448;-88
2023/03/03 08:54:59;;;;;;;69.68;44.17;;;;;;;;;;5011821;28;20393;-88
2023/03/03 08:57:25;;;;;;;66.15;43.10;;;;;;;;;;5011371;28;20384;-87
2023/03/03 08:59:51;;;;;;;68.43;43.97;;;;;;;;;;4993510;28;20396;-87
2023/03/03 09:02:17;;;;;;;67.03;44.70;;;;;;;;;;5011385;28;20400;-87
2023/03/03 09:04:43;;;;;;;66.43;42.90;;;;;;;;;;5011331;28;20439;-88
2023/03/03 09:07:09;;;;;;;66.75;43.25;;;;;;;;;;5011324;28;20416;-88
2023/03/03 09:09:36;;;;;;;65.25;42.10;;;;;;;;;;5004823;28;20483;-87
2023/03/03 09:12:10;;;;;;;67.60;43.88;;;;;;;;;;5010888;28;20440;-88
2023/03/03 09:14:36;;;;;;;73.63;46.45;;;;;;;;;;5007375;28;20453;-88
2023/03/03 09:17:02;;;;;;;68.22;43.88;;;;;;;;;;5003386;28;20380;-89
2023/03/03 09:19:31;;;;;;;71.05;46.28;;;;;;;;;;5011669;28;20377;-87
2023/03/03 09:22:01;;;;;;;68.97;43.80;;;;;;;;;;5011693;28;20388;-88
2023/03/03 09:24:28;;;;;;;68.38;44.50;;;;;;;;;;5011153;28;20948;-88
2023/03/03 09:26:55;;;;;;;65.43;42.47;;;;;;;;;;5007299;28;20466;-88
2023/03/03 09:29:26;;;;;;;67.07;44.30;;;;;;;;;;5011150;28;20415;-88
2023/03/03 09:31:57;;;;;;;64.32;42.97;;;;;;;;;;5011044;28;20404;-89
2023/03/03 09:34:35;;;;;;;64.05;41.78;;;;;;;;;;5015901;28;20399;-89
2023/03/03 09:37:11;;;;;;;64.57;43.20;;;;;;;;;;5015239;28;20459;-88
2023/03/03 09:39:37;;;;;;;67.10;43.90;;;;;;;;;;5015094;28;20389;-88
2023/03/03 09:42:06;;;;;;;65.60;43.95;;;;;;;;;;5015019;28;20392;-90
2023/03/03 09:44:51;;;;;;;72.50;45.95;;;;;;;;;;4997163;28;20385;-88
2023/03/03 09:47:28;;;;;;;67.25;44.47;;;;;;;;;;5014549;28;20397;-88
2023/03/03 09:49:57;;;;;;;73.00;46.78;;;;;;;;;;5014639;28;20381;-88
2023/03/03 09:52:31;;;;;;;67.03;44.03;;;;;;;;;;5000797;28;20457;-90
2023/03/03 09:55:10;;;;;;;67.25;43.95;;;;;;;;;;5014362;28;20400;-88
2023/03/03 09:57:36;;;;;;;65.05;42.55;;;;;;;;;;5014737;28;20404;-88
2023/03/03 10:00:21;;;;;;;66.93;43.58;;;;;;;;;;5014450;28;20496;-88
2023/03/03 10:02:55;;;;;;;63.92;43.35;;;;;;;;;;5014161;28;20385;-89
2023/03/03 10:05:27;;;;;;;68.45;44.17;;;;;;;;;;5000877;28;20404;-88
2023/03/03 10:08:00;;;;;;;66.75;42.63;;;;;;;;;;5014353;28;20834;-89
2023/03/03 10:10:49;;;;;;;65.03;41.47;;;;;;;;;;5014303;28;20393;-88
2023/03/03 10:13:24;;;;;;;69.43;44.77;;;;;;;;;;4991624;28;20511;-89
2023/03/03 10:16:14;;;;;;;68.10;43.55;;;;;;;;;;5019402;28;20411;-88
2023/03/03 10:18:57;;;;;;;63.15;41.70;;;;;;;;;;5003324;28;20889;-88
2023/03/03 10:21:24;;;;;;;67.65;43.08;;;;;;;;;;5014423;28;20416;-87
2023/03/03 10:23:53;;;;;;;62.53;40.83;;;;;;;;;;5014557;28;20395;-88
2023/03/03 10:26:33;;;;;;;65.73;40.77;;;;;;;;;;5015416;28;20391;-89
2023/03/03 10:29:02;;;;;;;66.88;43.90;;;;;;;;;;5006135;28;20389;-91
2023/03/03 10:31:32;;;;;;;66.95;44.08;;;;;;;;;;5010217;28;20381;-88
2023/03/03 10:34:03;;;;;;;64.43;43.40;;;;;;;;;;5034384;28;20369;-91
2023/03/03 10:36:48;;;;;;;61.47;40.87;;;;;;;;;;5025807;28;20395;-89
2023/03/03 10:39:14;;;;;;;59.40;39.78;;;;;;;;;;5007642;28;20389;-86
2023/03/03 10:41:52;;;;;;;60.22;39.63;;;;;;;;;;5014813;28;20400;-89
2023/03/03 10:44:43;;;;;;;62.05;41.20;;;;;;;;;;5002529;28;20460;-88
2023/03/03 10:47:17;;;;;;;61.53;40.90;;;;;;;;;;5010921;28;20878;-89
2023/03/03 10:49:56;;;;;;;59.75;40.95;;;;;;;;;;4996159;28;20854;-90
2023/03/03 10:52:41;;;;;;;58.17;39.90;;;;;;;;;;4992529;28;20986;-88
2023/03/03 10:55:18;;;;;;;61.27;41.43;;;;;;;;;;5005990;28;20406;-87
2023/03/03 10:57:53;;;;;;;60.97;40.53;;;;;;;;;;5013680;28;20381;-91
2023/03/03 11:00:22;;;;;;;59.30;40.88;;;;;;;;;;5013354;28;20389;-88
2023/03/03 11:03:06;;;;;;;62.40;41.15;;;;;;;;;;5013430;28;20389;-90
2023/03/03 11:05:32;;;;;;;60.30;40.00;;;;;;;;;;5013692;28;20450;-90
2023/03/03 11:08:05;;;;;;;63.65;40.85;;;;;;;;;;5013306;28;20376;-88
2023/03/03 11:10:34;;;;;;;58.33;40.83;;;;;;;;;;5011717;28;20392;-90
2023/03/03 11:13:12;;;;;;;58.30;40.17;;;;;;;;;;5011432;28;20429;-88
2023/03/03 11:15:50;;;;;;;62.55;41.10;;;;;;;;;;5012360;28;20896;-88
2023/03/03 11:18:16;;;;;;;61.45;41.67;;;;;;;;;;5010102;28;20392;-85
2023/03/03 11:20:51;;;;;;;56.90;39.67;;;;;;;;;;5010787;28;20727;-88
2023/03/03 11:23:25;;;;;;;59.55;41.10;;;;;;;;;;5011391;28;20877;-89
2023/03/03 11:26:07;;;;;;;62.20;42.30;;;;;;;;;;5009015;28;20380;-90
2023/03/03 11:28:54;;;;;;;60.95;41.25;;;;;;;;;;5011192;28;20385;-90
2023/03/03 11:31:39;;;;;;;59.72;41.03;;;;;;;;;;5009679;28;20396;-90
2023/03/03 11:34:09;;;;;;;59.75;41.13;;;;;;;;;;4993069;28;20451;-88
2023/03/03 11:36:42;;;;;;;60.72;41.15;;;;;;;;;;5011202;28;20393;-90
2023/03/03 11:39:13;;;;;;;65.30;42.50;;;;;;;;;;5008623;28;20408;-88
2023/03/03 11:41:42;;;;;;;63.63;44.05;;;;;;;;;;4992760;28;20750;-88
2023/03/03 11:44:27;;;;;;;64.35;44.38;;;;;;;;;;5010559;28;20862;-89
2023/03/03 11:46:55;;;;;;;61.08;42.80;;;;;;;;;;5010359;28;20396;-90
2023/03/03 11:49:28;;;;;;;58.65;40.80;;;;;;;;;;5010542;28;20447;-90
2023/03/03 11:52:00;;;;;;;62.28;42.03;;;;;;;;;;5010676;28;20408;-88
2023/03/03 11:54:29;;;;;;;58.70;39.30;;;;;;;;;;5008064;28;20389;-90
2023/03/03 11:57:07;;;;;;;59.87;41.10;;;;;;;;;;5010305;28;20412;-90
2023/03/03 11:59:41;;;;;;;61.30;41.00;;;;;;;;;;5009819;28;20439;-90
2023/03/03 12:02:13;;;;;;;61.17;41.65;;;;;;;;;;5010147;28;20399;-90
2023/03/03 12:04:53;;;;;;;60.20;40.90;;;;;;;;;;5010028;28;20461;-89
2023/03/03 12:07:31;;;;;;;64.05;42.25;;;;;;;;;;5010220;28;20388;-89
2023/03/03 12:10:16;;;;;;;62.40;41.97;;;;;;;;;;4991329;28;20403;-88
2023/03/03 12:12:43;;;;;;;60.20;40.85;;;;;;;;;;5008618;28;20520;-88
2023/03/03 12:15:29;;;;;;;61.67;41.10;;;;;;;;;;5010411;28;20790;-88
2023/03/03 12:17:58;;;;;;;58.50;39.38;;;;;;;;;;5010066;28;20487;-88
2023/03/03 12:20:48;;;;;;;58.33;40.40;;;;;;;;;;5009855;28;20448;-89
2023/03/03 12:23:31;;;;;;;59.15;40.65;;;;;;;;;;5010239;28;20472;-88
2023/03/03 12:26:00;;;;;;;57.43;40.30;;;;;;;;;;4991535;28;20458;-90
2023/03/03 12:28:49;;;;;;;54.42;38.72;;;;;;;;;;5010133;28;20479;-88
2023/03/03 12:31:27;;;;;;;54.92;39.50;;;;;;;;;;5010048;28;20384;-89
2023/03/03 12:34:12;;;;;;;55.42;40.45;;;;;;;;;;5002119;28;20430;-88
2023/03/03 12:36:59;;;;;;;56.63;39.42;;;;;;;;;;5005852;28;20916;-89
2023/03/03 12:39:45;;;;;;;53.85;38.28;;;;;;;;;;5011727;28;20395;-88
2023/03/03 12:42:14;;;;;;;58.40;40.30;;;;;;;;;;5011256;28;20463;-89
2023/03/03 12:44:43;;;;;;;55.75;39.72;;;;;;;;;;5011473;28;20379;-90
2023/03/03 12:47:14;;;;;;;56.78;39.05;;;;;;;;;;5010932;28;20373;-90
2023/03/03 12:49:59;;;;;;;55.33;37.97;;;;;;;;;;5011522;28;20861;-90
2023/03/03 12:52:28;;;;;;;55.45;38.40;;;;;;;;;;5011380;28;20424;-89
2023/03/03 12:55:02;;;;;;;54.70;37.92;;;;;;;;;;5011743;28;20381;-87
2023/03/03 12:57:31;;;;;;;54.78;38.65;;;;;;;;;;5011693;28;20400;-86
2023/03/03 12:59:57;;;;;;;55.17;37.35;;;;;;;;;;5011557;28;20447;-88
2023/03/03 13:02:41;;;;;;;51.67;36.42;;;;;;;;;;5011784;28;20411;-88
2023/03/03 13:05:14;;;;;;;53.55;36.63;;;;;;;;;;5013508;28;20384;-88
2023/03/03 13:07:47;;;;;;;52.65;37.17;;;;;;;;;;5011235;28;20396;-87
2023/03/03 13:10:20;;;;;;;54.90;38.13;;;;;;;;;;5013443;28;20392;-88
2023/03/03 13:12:56;;;;;;;60.50;41.55;;;;;;;;;;5015919;28;20424;-88
2023/03/03 13:15:30;;;;;;;62.88;41.15;;;;;;;;;;5019343;28;20381;-87
2023/03/03 13:17:59;;;;;;;61.13;41.53;;;;;;;;;;5018215;28;20477;-87
2023/03/03 13:20:40;;;;;;;66.75;42.28;;;;;;;;;;4999868;28;20858;-90
2023/03/03 13:23:09;;;;;;;59.67;40.72;;;;;;;;;;5024624;28;20479;-91
2023/03/03 13:25:35;;;;;;;66.05;44.42;;;;;;;;;;5016222;28;20393;-87
2023/03/03 13:28:17;;;;;;;57.55;40.47;;;;;;;;;;5015956;28;20872;-89
2023/03/03 13:30:47;;;;;;;60.88;40.65;;;;;;;;;;5017086;28;20399;-88
2023/03/03 13:33:16;;;;;;;59.85;41.00;;;;;;;;;;5016588;28;20420;-88
2023/03/03 13:35:51;;;;;;;58.63;39.38;;;;;;;;;;5015123;28;20408;-85
2023/03/03 13:38:40;;;;;;;60.35;40.50;;;;;;;;;;4997326;28;20426;-86
2023/03/03 13:41:15;;;;;;;60.22;40.75;;;;;;;;;;4997631;28;20396;-86
2023/03/03 13:43:50;;;;;;;59.63;40.28;;;;;;;;;;5015970;28;20420;-89
2023/03/03 13:46:16;;;;;;;62.30;42.17;;;;;;;;;;5009799;28;20389;-87
2023/03/03 13:48:57;;;;;;;60.75;41.58;;;;;;;;;;5005628;28;20456;-86
2023/03/03 13:51:31;;;;;;;59.30;40.40;;;;;;;;;;5007066;28;20377;-86
2023/03/03 13:54:16;;;;;;;62.13;41.85;;;;;;;;;;5003481;28;20426;-86
2023/03/03 13:56:42;;;;;;;62.88;42.85;;;;;;;;;;5002430;28;20374;-86
2023/03/03 13:59:17;;;;;;;63.97;42.70;;;;;;;;;;5018612;28;20377;-86
2023/03/03 14:01:42;;;;;;;61.55;41.50;;;;;;;;;;5021380;28;20901;-84
2023/03/03 14:04:13;;;;;;;61.78;41.38;;;;;;;;;;5019517;28;20386;-86
2023/03/03 14:06:40;;;;;;;60.28;41.65;;;;;;;;;;5017425;28;20400;-86
2023/03/03 14:09:17;;;;;;;61.28;41.47;;;;;;;;;;5016953;28;20389;-85
2023/03/03 14:11:53;;;;;;;67.65;42.45;;;;;;;;;;5016295;28;20846;-87
2023/03/03 14:14:34;;;;;;;65.15;42.08;;;;;;;;;;5007218;28;20486;-86
2023/03/03 14:17:00;;;;;;;61.28;40.40;;;;;;;;;;5014914;28;20389;-85
2023/03/03 14:19:45;;;;;;;61.80;41.20;;;;;;;;;;5015317;28;20427;-86
2023/03/03 14:22:12;;;;;;;58.08;40.47;;;;;;;;;;5014126;28;20415;-85
2023/03/03 14:25:07;;;;;;;91.45;52.03;;;;;;;;;;5014696;28;20451;-87
2023/03/03 14:27:34;;;;;;;65.93;43.90;;;;;;;;;;4976858;28;20404;-86
2023/03/03 14:30:20;;;;;;;67.45;41.58;;;;;;;;;;5011600;28;20416;-86
2023/03/03 14:33:05;;;;;;;56.90;39.63;;;;;;;;;;5014258;28;20412;-86
2023/03/03 14:35:33;;;;;;;66.63;45.78;;;;;;;;;;5001249;28;20387;-87